Aeroporto :
LOGIN :

Iscrizione | Disclaimer

   EN    FR    IT 

 










Sommario :    VFR   VFR Marginale   IFR   IFR Intensivo   IFR Molto Intensivo
Visibilità : 
Base nubi : 
>= 8 km
>= 3000ft
5 / 8 km
1000 / 3000 ft
1500m / 5 km
500 / 1000 ft
800 / 1500m
200 / 500 ft
< 800m
< 200 ft
Simboli :   Temporali  Nebbia  Neve Forte  Precipitazioni Forti  Vento > 20 kt
SIGMETs :   Varie  Temporali  Ghiacco  Turbolenza  Onda orograficha  Ceneri Vulcaniche






- Altitudine del aeroporto : 87 ft
- Codice IATA : FSC


LFKF - Figari

ULTIMO METAR :
  • 230230Z AUTO 25005KT 9999 -TSRA ///CB 17/16 Q1012

METARs OBSOLETI :
  • 230200Z AUTO 21007KT 9999 TSRA FEW015/// ///CB 18/17 Q1012
  • 230130Z AUTO 20005KT 150V230 9999 -TSRA SCT023/// BKN043/// BKN070/// ///CB 17/17 Q1012
  • 230100Z AUTO 25003KT 200V280 9999 TS SCT024/// SCT033/// BKN200/// ///CB 16/16 Q1012
  • 230030Z AUTO VRB02KT 9999 VCTS FEW030/// ///CB 14/13 Q1013
  • 230000Z AUTO VRB01KT CAVOK 14/14 Q1013

TAF TAF LFKF
Valido dal 23 a 03 ore il 24 a 03 ore UTC


230200Z 2303/2403 25010KT 9999 FEW060CB BKN090
TEMPO 2303/2307 24020G40KT 4000 TSRA SCT013 BKN030CB OVC050
BECMG 2307/2308 NSC
TEMPO 2312/2324 26015G25KT SHRA SCT025TCU
PROB30 2315/2324 TSRA SCT020CB



MetMap, La meteo Aeronautica in un colpo d'occhio ! - Copyright ORBIFLY Dicembre 2007 - Disclaimer

ORBIFLY MET'MAP TEAM :

Programmazione e sviluppo : Alexandra Zaïnal
Concezione : Baudouin d'Aumeries
Aiuto per la programmazione : Marc-Olivier Méhu
Supporto tecnico e logistico : Manuel Goepfert
Aiuto per la traduzione : Arnaldo La Scala

Contatto : metmap@orbifly.com




FONTI E CREDITI :

   NOAA